Time;durP1;ratioP1;P1;durP2;ratioP2;P2;SDS_P1;SDS_P2;PMS_P1;PMS_P2;Temp;Humidity;BMP_temperature;BMP_pressure;BME280_temperature;BME280_humidity;BME280_pressure;Samples;Min_cycle;Max_cycle;Signal;HPM_P1;HPM_P2
2024/01/23 00:00:46;;;;;;;;;;;;;;;-144.99;88.67;52574.47;5008131;28;20303;-68
2024/01/23 00:03:12;;;;;;;;;;;;;;;-144.99;87.97;52594.84;5009346;28;19926;-68
2024/01/23 00:05:38;;;;;;;;;;;;;;;-144.99;89.15;52558.16;5010705;28;19976;-69
2024/01/23 00:08:05;;;;;;;;;;;;;;;-144.99;89.48;52574.47;5008733;28;19964;-68
2024/01/23 00:10:32;;;;;;;;;;;;;;;-144.99;89.39;52558.16;5000644;28;19964;-69
2024/01/23 00:12:58;;;;;;;;;;;;;;;-144.99;89.90;52576.50;5007775;28;19952;-69
2024/01/23 00:15:25;;;;;;;;;;;;;;;-144.99;89.07;52539.81;5012008;28;19930;-69
2024/01/23 00:17:53;;;;;;;;;;;;;;;-144.99;88.60;52578.53;5009957;28;20395;-68
2024/01/23 00:20:19;;;;;;;;;;;;;;;-144.99;88.70;52545.94;5008187;28;19933;-69
2024/01/23 00:22:46;;;;;;;;;;;;;;;-144.99;88.86;52578.53;5007001;28;19991;-69
2024/01/23 00:25:12;;;;;;;;;;;;;;;-144.99;89.34;52558.16;5000917;28;20280;-69
2024/01/23 00:27:39;;;;;;;;;;;;;;;-144.99;89.56;52541.84;5007988;28;20432;-69
2024/01/23 00:30:07;;;;;;;;;;;;;;;-144.99;89.20;52566.31;5004876;28;20029;-68
2024/01/23 00:32:34;;;;;;;;;;;;;;;-144.99;90.41;52533.69;5007062;28;20465;-67
2024/01/23 00:35:01;;;;;;;;;;;;;;;-144.99;91.91;52550.00;5007008;28;19972;-67
2024/01/23 00:37:28;;;;;;;;;;;;;;;-144.99;92.61;52562.25;5004336;28;20024;-66
2024/01/23 00:39:55;;;;;;;;;;;;;;;-144.99;98.19;52592.81;5002903;28;20343;-65
2024/01/23 00:42:22;;;;;;;;;;;;;;;-144.99;100.00;52588.75;5005955;28;20193;-66
2024/01/23 00:44:49;;;;;;;;;;;;;;;-144.99;100.00;52590.78;4999349;28;20511;-65
2024/01/23 00:47:15;;;;;;;;;;;;;;;-144.99;100.00;52582.63;5007965;28;19926;-66
2024/01/23 00:49:42;;;;;;;;;;;;;;;-144.99;100.00;52607.09;5007732;28;20036;-66
2024/01/23 00:52:10;;;;;;;;;;;;;;;-144.99;100.00;52578.53;4998972;28;20280;-63
2024/01/23 00:54:36;;;;;;;;;;;;;;;-144.99;100.00;52590.78;5006616;28;20011;-64
2024/01/23 00:57:05;;;;;;;;;;;;;;;-144.99;100.00;52619.31;5006524;28;20169;-64
2024/01/23 00:59:31;;;;;;;;;;;;;;;-144.99;100.00;52570.38;5004434;28;20021;-64
2024/01/23 01:01:58;;;;;;;;;;;;;;;-144.99;100.00;52570.38;5008390;28;19965;-64
2024/01/23 01:04:24;;;;;;;;;;;;;;;-144.99;100.00;52566.31;5004917;28;20354;-63
2024/01/23 01:06:51;;;;;;;;;;;;;;;-144.99;100.00;52582.63;5006080;28;19933;-63
2024/01/23 01:09:19;;;;;;;;;;;;;;;-144.99;100.00;52576.50;5004181;28;19965;-64
2024/01/23 01:11:45;;;;;;;;;;;;;;;-144.99;100.00;52594.84;5004107;28;19968;-65
2024/01/23 01:14:11;;;;;;;;;;;;;;;-144.99;100.00;52527.59;5007451;28;19956;-65
2024/01/23 01:16:38;;;;;;;;;;;;;;;-144.99;99.92;52617.28;5008396;28;19976;-66
2024/01/23 01:19:04;;;;;;;;;;;;;;;-144.99;99.36;52598.94;4997915;28;19980;-67
2024/01/23 01:21:31;;;;;;;;;;;;;;;-144.99;99.48;52590.78;5008558;28;19972;-67
2024/01/23 01:23:57;;;;;;;;;;;;;;;-144.99;99.93;52584.66;5012104;28;20365;-67
2024/01/23 01:26:25;;;;;;;;;;;;;;;-144.99;99.72;52566.31;5006982;28;19997;-62
2024/01/23 01:28:52;;;;;;;;;;;;;;;-144.99;99.73;52570.38;5007638;28;20360;-63
2024/01/23 01:31:18;;;;;;;;;;;;;;;-144.99;100.00;52566.31;5005289;28;19929;-62
2024/01/23 01:33:45;;;;;;;;;;;;;;;-144.99;99.55;52603.00;5011007;28;20403;-62
2024/01/23 01:36:11;;;;;;;;;;;;;;;-144.99;100.00;52619.31;5005850;28;20015;-70
2024/01/23 01:38:38;;;;;;;;;;;;;;;-144.99;100.00;52592.81;5014970;28;19941;-71
2024/01/23 01:41:04;;;;;;;;;;;;;;;-144.99;99.38;52596.88;5014312;28;20004;-71
2024/01/23 01:43:32;;;;;;;;;;;;;;;-144.99;100.00;52574.47;5013344;28;19961;-71
2024/01/23 01:46:11;;;;;;;;;;;;;;;-144.99;99.27;52586.69;5011317;28;20379;-71
2024/01/23 01:48:38;;;;;;;;;;;;;;;-144.99;98.56;52576.50;5005375;28;20011;-72
2024/01/23 01:51:05;;;;;;;;;;;;;;;-144.99;98.52;52566.31;4998919;28;20521;-73
2024/01/23 01:53:31;;;;;;;;;;;;;;;-144.99;98.72;52586.69;5011339;28;20017;-72
2024/01/23 01:55:58;;;;;;;;;;;;;;;-144.99;98.37;52594.84;5004013;28;20008;-72
2024/01/23 01:58:25;;;;;;;;;;;;;;;-144.99;98.39;52582.63;5007534;28;19963;-73
2024/01/23 02:00:54;;;;;;;;;;;;;;;-144.99;98.31;52590.78;5003122;28;19926;-72
2024/01/23 02:03:21;;;;;;;;;;;;;;;-144.99;98.72;52578.53;5012662;28;20038;-72
2024/01/23 02:05:47;;;;;;;;;;;;;;;-144.99;97.94;52574.47;5006989;28;19934;-71
2024/01/23 02:08:14;;;;;;;;;;;;;;;-144.99;98.40;52570.38;5008735;28;20403;-71
2024/01/23 02:10:41;;;;;;;;;;;;;;;-144.99;98.18;52584.66;5012239;28;19960;-70
2024/01/23 02:13:08;;;;;;;;;;;;;;;-144.99;98.03;52562.25;5007265;28;19929;-71
2024/01/23 02:15:35;;;;;;;;;;;;;;;-144.99;98.91;52607.09;5009544;28;19997;-70
2024/01/23 02:18:03;;;;;;;;;;;;;;;-144.99;98.12;52560.19;5006008;28;19973;-71
2024/01/23 02:20:30;;;;;;;;;;;;;;;-144.99;98.14;52566.31;5014392;28;20276;-71
2024/01/23 02:22:56;;;;;;;;;;;;;;;-144.99;98.45;52603.00;5007702;28;19967;-71
2024/01/23 02:25:24;;;;;;;;;;;;;;;-144.99;97.78;52572.44;5014664;28;19925;-71
2024/01/23 02:27:51;;;;;;;;;;;;;;;-144.99;98.36;52590.78;5015754;28;19925;-68
2024/01/23 02:30:17;;;;;;;;;;;;;;;-144.99;97.46;52564.28;5011159;28;19929;-70
2024/01/23 02:32:44;;;;;;;;;;;;;;;-144.99;97.32;52545.94;5005073;28;20052;-70
2024/01/23 02:35:11;;;;;;;;;;;;;;;-144.99;97.27;52582.63;5008284;28;19979;-70
2024/01/23 02:37:37;;;;;;;;;;;;;;;-144.99;98.24;52590.78;5009749;28;20169;-69
2024/01/23 02:40:04;;;;;;;;;;;;;;;-144.99;97.55;52564.28;5005509;28;20439;-67
2024/01/23 02:42:32;;;;;;;;;;;;;;;-144.99;97.45;52590.78;5009414;28;20036;-66
2024/01/23 02:44:58;;;;;;;;;;;;;;;-144.99;97.51;52539.81;5004164;28;20288;-66
2024/01/23 02:47:25;;;;;;;;;;;;;;;-144.99;97.24;52566.31;5009665;28;19976;-66
2024/01/23 02:49:51;;;;;;;;;;;;;;;-144.99;96.98;52560.19;5009661;28;20380;-66
2024/01/23 02:52:18;;;;;;;;;;;;;;;-144.99;96.88;52572.44;4999560;28;19988;-69
2024/01/23 02:54:44;;;;;;;;;;;;;;;-144.99;97.13;52558.16;5004275;28;19925;-70
2024/01/23 02:57:12;;;;;;;;;;;;;;;-144.99;97.51;52558.16;5008231;28;20341;-69
2024/01/23 02:59:40;;;;;;;;;;;;;;;-144.99;97.71;52609.13;5008593;28;20492;-71
2024/01/23 03:02:06;;;;;;;;;;;;;;;-144.99;97.04;52586.69;5013918;28;19925;-71
2024/01/23 03:04:33;;;;;;;;;;;;;;;-144.99;96.36;52584.66;5008812;28;20406;-70
2024/01/23 03:06:59;;;;;;;;;;;;;;;-144.99;97.21;52582.63;5007994;28;20305;-70
2024/01/23 03:09:26;;;;;;;;;;;;;;;-144.99;97.38;52605.03;5012980;28;19961;-69
2024/01/23 03:11:53;;;;;;;;;;;;;;;-144.99;97.11;52562.25;5005253;28;19969;-70
2024/01/23 03:14:19;;;;;;;;;;;;;;;-144.99;96.89;52566.31;5011109;28;20018;-70
2024/01/23 03:16:47;;;;;;;;;;;;;;;-144.99;96.93;52586.69;5007172;28;19926;-65
2024/01/23 03:19:13;;;;;;;;;;;;;;;-144.99;96.92;52580.59;5003946;28;19926;-66
2024/01/23 03:21:40;;;;;;;;;;;;;;;-144.99;96.50;52592.81;4996206;28;19995;-65
2024/01/23 03:24:07;;;;;;;;;;;;;;;-144.99;96.21;52570.38;5007512;28;20016;-64
2024/01/23 03:26:33;;;;;;;;;;;;;;;-144.99;95.75;52574.47;5000484;28;20362;-64
2024/01/23 03:28:59;;;;;;;;;;;;;;;-144.99;95.95;52586.69;4999415;28;19929;-64
2024/01/23 03:31:26;;;;;;;;;;;;;;;-144.99;95.65;52574.47;4998633;28;20434;-63
2024/01/23 03:33:54;;;;;;;;;;;;;;;-144.99;96.11;52590.78;4981486;28;20012;-64
2024/01/23 03:36:20;;;;;;;;;;;;;;;-144.99;95.60;52554.09;5008528;28;19925;-64
2024/01/23 03:38:47;;;;;;;;;;;;;;;-144.99;95.36;52572.44;4985690;28;20386;-64
2024/01/23 03:41:13;;;;;;;;;;;;;;;-144.99;95.00;52607.09;5007528;28;20303;-67
2024/01/23 03:43:40;;;;;;;;;;;;;;;-144.99;95.02;52617.28;5002337;28;20476;-66
2024/01/23 03:46:06;;;;;;;;;;;;;;;-144.99;94.92;52586.69;5005128;28;19926;-65
2024/01/23 03:48:33;;;;;;;;;;;;;;;-144.99;94.63;52562.25;5005719;28;20008;-73
2024/01/23 03:51:01;;;;;;;;;;;;;;;-144.99;94.74;52574.47;5019034;28;19953;-73
2024/01/23 03:53:30;;;;;;;;;;;;;;;-144.99;94.95;52580.59;5017786;28;19957;-75
2024/01/23 03:55:57;;;;;;;;;;;;;;;-144.99;94.19;52582.63;5004366;28;19925;-69
2024/01/23 03:58:23;;;;;;;;;;;;;;;-144.99;94.22;52586.69;5006414;28;20018;-69
2024/01/23 04:00:49;;;;;;;;;;;;;;;-144.99;94.72;52574.47;5007753;28;19965;-70
2024/01/23 04:03:16;;;;;;;;;;;;;;;-144.99;94.28;52566.31;5001123;28;20395;-71
2024/01/23 04:05:42;;;;;;;;;;;;;;;-144.99;93.78;52594.84;5008631;28;20439;-71
2024/01/23 04:08:10;;;;;;;;;;;;;;;-144.99;94.55;52584.66;5005771;28;20457;-71
2024/01/23 04:10:37;;;;;;;;;;;;;;;-144.99;93.96;52586.69;5005565;28;19929;-72
2024/01/23 04:13:03;;;;;;;;;;;;;;;-144.99;93.83;52627.47;5008095;28;19961;-73
2024/01/23 04:15:30;;;;;;;;;;;;;;;-144.99;94.34;52570.38;5008478;28;20066;-72
2024/01/23 04:17:56;;;;;;;;;;;;;;;-144.99;93.61;52603.00;5005910;28;20016;-72
2024/01/23 04:20:23;;;;;;;;;;;;;;;-144.99;94.26;52582.63;4999948;28;19961;-71
2024/01/23 04:22:49;;;;;;;;;;;;;;;-144.99;93.92;52576.50;5002068;28;19926;-69
2024/01/23 04:25:17;;;;;;;;;;;;;;;-144.99;94.25;52598.94;4997549;28;20040;-70
2024/01/23 04:27:44;;;;;;;;;;;;;;;-144.99;93.91;52554.09;5003958;28;19933;-72
2024/01/23 04:30:10;;;;;;;;;;;;;;;-144.99;93.61;52525.56;5003194;28;19936;-70
2024/01/23 04:32:37;;;;;;;;;;;;;;;-144.99;94.45;52590.78;4998288;28;20328;-71
2024/01/23 04:35:04;;;;;;;;;;;;;;;-144.99;93.94;52521.47;5005133;28;19933;-71
2024/01/23 04:37:30;;;;;;;;;;;;;;;-144.99;94.78;52570.38;5006912;28;20012;-70
2024/01/23 04:39:57;;;;;;;;;;;;;;;-144.99;94.18;52582.63;5005632;28;19984;-69
2024/01/23 04:42:25;;;;;;;;;;;;;;;-144.99;93.82;52613.19;5003520;28;20029;-70
2024/01/23 04:44:51;;;;;;;;;;;;;;;-144.99;93.91;52586.69;5004599;28;19925;-70
2024/01/23 04:47:18;;;;;;;;;;;;;;;-144.99;93.22;52578.53;5008528;28;19929;-73
2024/01/23 04:49:44;;;;;;;;;;;;;;;-144.99;93.30;52574.47;5009289;28;19930;-75
2024/01/23 04:52:11;;;;;;;;;;;;;;;-144.99;93.63;52615.25;5000103;28;20292;-75
2024/01/23 04:54:37;;;;;;;;;;;;;;;-144.99;93.69;52568.34;5007806;28;20031;-74
2024/01/23 04:57:04;;;;;;;;;;;;;;;-144.99;94.27;52578.53;5011739;28;19933;-76
2024/01/23 04:59:32;;;;;;;;;;;;;;;-144.99;93.49;52600.97;5015390;28;20317;-76
2024/01/23 05:01:58;;;;;;;;;;;;;;;-144.99;93.98;52562.25;5014785;28;20003;-68
2024/01/23 05:04:25;;;;;;;;;;;;;;;-144.99;94.76;52582.63;5011823;28;19968;-78
2024/01/23 05:06:51;;;;;;;;;;;;;;;-144.99;95.01;52586.69;5002237;28;19940;-71
2024/01/23 05:09:19;;;;;;;;;;;;;;;-144.99;94.20;52570.38;5010651;28;20375;-71
2024/01/23 05:11:46;;;;;;;;;;;;;;;-144.99;94.95;52568.34;5012087;28;20445;-71
2024/01/23 05:14:12;;;;;;;;;;;;;;;-144.99;95.09;52598.94;5008674;28;19944;-72
2024/01/23 05:16:40;;;;;;;;;;;;;;;-144.99;93.97;52582.63;5008254;28;19976;-72
2024/01/23 05:19:07;;;;;;;;;;;;;;;-144.99;93.86;52582.63;5015164;28;19929;-73
2024/01/23 05:21:33;;;;;;;;;;;;;;;-144.99;94.48;52578.53;5006665;28;20036;-75
2024/01/23 05:24:01;;;;;;;;;;;;;;;-144.99;95.74;52590.78;5005410;28;20339;-75
2024/01/23 05:26:27;;;;;;;;;;;;;;;-144.99;96.98;52519.44;5007052;28;20017;-71
2024/01/23 05:28:54;;;;;;;;;;;;;;;-144.99;97.30;52592.81;5010928;28;20024;-72
2024/01/23 05:31:20;;;;;;;;;;;;;;;-144.99;98.59;52558.16;5013723;28;19975;-73
2024/01/23 05:33:48;;;;;;;;;;;;;;;-144.99;97.64;52603.00;5013898;28;19980;-73
2024/01/23 05:36:15;;;;;;;;;;;;;;;-144.99;97.05;52574.47;5006117;28;20055;-70
2024/01/23 05:38:40;;;;;;;;;;;;;;;-144.99;97.64;52533.69;5012057;28;19929;-72
2024/01/23 05:41:07;;;;;;;;;;;;;;;-144.99;98.40;52558.16;5011426;28;20410;-72
2024/01/23 05:43:33;;;;;;;;;;;;;;;-144.99;98.27;52574.47;5010732;28;20017;-72
2024/01/23 05:46:00;;;;;;;;;;;;;;;-144.99;97.86;52578.53;5010448;28;20125;-73
2024/01/23 05:48:28;;;;;;;;;;;;;;;-144.99;98.30;52590.78;5012961;28;19925;-72
2024/01/23 05:50:56;;;;;;;;;;;;;;;-144.99;98.74;52582.63;5009368;28;20395;-72
2024/01/23 05:53:23;;;;;;;;;;;;;;;-144.99;98.30;52613.19;5014053;28;19926;-72
2024/01/23 05:55:49;;;;;;;;;;;;;;;-144.99;98.89;52541.84;5007204;28;19926;-72
2024/01/23 05:58:16;;;;;;;;;;;;;;;-144.99;98.38;52574.47;5007090;28;19976;-72
2024/01/23 06:00:42;;;;;;;;;;;;;;;-144.99;99.04;52596.88;5019209;28;19932;-73
2024/01/23 06:03:08;;;;;;;;;;;;;;;-144.99;98.74;52566.31;5008822;28;19929;-72
2024/01/23 06:05:35;;;;;;;;;;;;;;;-144.99;98.81;52539.81;5001353;28;19925;-73
2024/01/23 06:08:03;;;;;;;;;;;;;;;-144.99;97.58;52578.53;5006192;28;20391;-72
2024/01/23 06:10:30;;;;;;;;;;;;;;;-144.99;97.66;52562.25;5007255;28;20016;-70
2024/01/23 06:12:56;;;;;;;;;;;;;;;-144.99;98.66;52554.09;5010302;28;19984;-67
2024/01/23 06:15:21;;;;;;;;;;;;;;;-144.99;97.52;52562.25;5002768;28;20326;-72
2024/01/23 06:17:48;;;;;;;;;;;;;;;-144.99;96.87;52615.25;5001150;28;19973;-69
2024/01/23 06:20:14;;;;;;;;;;;;;;;-144.99;97.62;52576.50;5009703;28;19965;-69
2024/01/23 06:22:41;;;;;;;;;;;;;;;-144.99;97.86;52582.63;5004097;28;19929;-69
2024/01/23 06:25:10;;;;;;;;;;;;;;;-144.99;97.53;52533.69;5004206;28;19968;-69
2024/01/23 06:27:36;;;;;;;;;;;;;;;-144.99;96.52;52582.63;5009302;28;19926;-69
2024/01/23 06:30:04;;;;;;;;;;;;;;;-144.99;96.08;52598.94;5009213;28;20160;-77
2024/01/23 06:32:31;;;;;;;;;;;;;;;-144.99;96.10;52574.47;5010369;28;19995;-77
2024/01/23 06:34:57;;;;;;;;;;;;;;;-144.99;96.08;52570.38;4320293;28;10000602;-76
2024/01/23 06:37:24;;;;;;;;;;;;;;;-144.99;95.06;52566.31;5005961;28;19965;-75
2024/01/23 06:39:50;;;;;;;;;;;;;;;-144.99;95.98;52570.38;5006392;28;20364;-74
2024/01/23 06:42:18;;;;;;;;;;;;;;;-144.99;96.28;52603.00;5032370;28;19930;-75
2024/01/23 06:44:45;;;;;;;;;;;;;;;-144.99;95.53;52558.16;5016984;28;19933;-75
2024/01/23 06:47:11;;;;;;;;;;;;;;;-144.99;95.51;52527.59;5008817;28;19926;-76
2024/01/23 06:49:38;;;;;;;;;;;;;;;-144.99;94.76;52558.16;5006565;28;20328;-75
2024/01/23 06:52:05;;;;;;;;;;;;;;;-144.99;95.94;52570.38;5003204;28;20028;-76
2024/01/23 06:54:31;;;;;;;;;;;;;;;-144.99;96.61;52590.78;5005070;28;20388;-76
2024/01/23 06:56:59;;;;;;;;;;;;;;;-144.99;96.15;52545.94;5002796;28;20403;-75
2024/01/23 06:59:27;;;;;;;;;;;;;;;-144.99;96.44;52586.69;5000713;28;19940;-75
2024/01/23 07:01:53;;;;;;;;;;;;;;;-144.99;96.31;52582.63;5012579;28;19983;-76
2024/01/23 07:04:20;;;;;;;;;;;;;;;-144.99;96.75;52584.66;5008132;28;20351;-75
2024/01/23 07:06:46;;;;;;;;;;;;;;;-144.99;96.69;52578.53;5008455;28;20021;-76
2024/01/23 07:09:13;;;;;;;;;;;;;;;-144.99;96.14;52582.63;5006733;28;20422;-76
2024/01/23 07:11:40;;;;;;;;;;;;;;;-144.99;96.08;52545.94;5004640;28;19929;-75
2024/01/23 07:14:07;;;;;;;;;;;;;;;-144.99;96.64;52605.03;5005283;28;19929;-76
2024/01/23 07:16:35;;;;;;;;;;;;;;;-144.99;96.90;52566.31;5008848;28;20453;-75
2024/01/23 07:19:01;;;;;;;;;;;;;;;-144.99;95.81;52594.84;5007033;28;20010;-75
2024/01/23 07:21:28;;;;;;;;;;;;;;;-144.99;96.59;52594.84;5010058;28;20009;-75
2024/01/23 07:23:54;;;;;;;;;;;;;;;-144.99;96.85;52594.84;5005993;28;19929;-75
2024/01/23 07:26:21;;;;;;;;;;;;;;;-144.99;96.23;52539.81;5004811;28;19941;-75
2024/01/23 07:28:47;;;;;;;;;;;;;;;-144.99;97.10;52552.03;5004454;28;19925;-75
2024/01/23 07:31:14;;;;;;;;;;;;;;;-144.99;96.75;52545.94;5000196;28;19976;-75
2024/01/23 07:33:42;;;;;;;;;;;;;;;-144.99;97.13;52541.84;5006118;28;19980;-76
2024/01/23 07:36:09;;;;;;;;;;;;;;;-144.99;97.25;52550.00;5006566;28;20370;-76
2024/01/23 07:38:35;;;;;;;;;;;;;;;-144.99;97.70;52550.00;5005980;28;19933;-74
2024/01/23 07:41:02;;;;;;;;;;;;;;;-144.99;97.54;52572.44;5005392;28;20157;-75
2024/01/23 07:43:28;;;;;;;;;;;;;;;-144.99;98.00;52552.03;5006750;28;19980;-75
2024/01/23 07:45:55;;;;;;;;;;;;;;;-144.99;97.18;52533.69;5007376;28;20024;-76
2024/01/23 07:48:21;;;;;;;;;;;;;;;-144.99;96.80;52541.84;5008180;28;19937;-74
2024/01/23 07:50:49;;;;;;;;;;;;;;;-144.99;97.09;52611.16;5008652;28;20024;-75
2024/01/23 07:53:16;;;;;;;;;;;;;;;-144.99;97.94;52566.31;5000547;28;20104;-76
2024/01/23 07:55:45;;;;;;;;;;;;;;;-144.99;96.46;52511.28;4753378;28;10000270;-75
2024/01/23 07:58:13;;;;;;;;;;;;;;;-144.99;97.28;52590.78;5003960;28;19956;-76
2024/01/23 08:00:41;;;;;;;;;;;;;;;-144.99;96.78;52552.03;4998137;28;20398;-75
2024/01/23 08:03:08;;;;;;;;;;;;;;;-144.99;96.87;52558.16;4662244;28;9999989;-75
2024/01/23 08:05:34;;;;;;;;;;;;;;;-144.99;97.75;52596.88;5008116;28;19983;-75
2024/01/23 08:08:02;;;;;;;;;;;;;;;-144.99;97.64;52582.63;5019116;28;20452;-75
2024/01/23 08:10:30;;;;;;;;;;;;;;;-144.99;97.22;52570.38;5022894;28;19932;-75
2024/01/23 08:12:57;;;;;;;;;;;;;;;-144.99;97.76;52533.69;5010690;28;20341;-75
2024/01/23 08:15:23;;;;;;;;;;;;;;;-144.99;97.01;52566.31;5004581;28;20358;-75
2024/01/23 08:17:50;;;;;;;;;;;;;;;-144.99;96.94;52590.78;5003310;28;20435;-75
2024/01/23 08:20:16;;;;;;;;;;;;;;;-144.99;96.43;52570.38;5005845;28;19972;-74
2024/01/23 08:22:43;;;;;;;;;;;;;;;-144.99;96.19;52576.50;4995103;28;19930;-75
2024/01/23 08:25:11;;;;;;;;;;;;;;;-144.99;95.63;52570.38;5000111;28;19933;-75
2024/01/23 08:27:37;;;;;;;;;;;;;;;-144.99;95.77;52590.78;4999996;28;20000;-75
2024/01/23 08:30:04;;;;;;;;;;;;;;;-144.99;96.17;52578.53;5002773;28;19971;-75
2024/01/23 08:32:31;;;;;;;;;;;;;;;-144.99;95.75;52529.63;5002844;28;19933;-75
2024/01/23 08:34:57;;;;;;;;;;;;;;;-144.99;95.88;52554.09;5014212;28;19933;-75
2024/01/23 08:37:24;;;;;;;;;;;;;;;-144.99;97.25;52570.38;5009041;28;19933;-75
2024/01/23 08:39:51;;;;;;;;;;;;;;;-144.99;96.39;52550.00;5013881;28;20012;-74
2024/01/23 08:42:19;;;;;;;;;;;;;;;-144.99;95.42;52547.97;5009845;28;20012;-74
2024/01/23 08:44:47;;;;;;;;;;;;;;;-144.99;95.51;52562.25;5005461;28;20219;-75
2024/01/23 08:47:13;;;;;;;;;;;;;;;-144.99;96.65;52570.38;5006428;28;20428;-75
2024/01/23 08:49:40;;;;;;;;;;;;;;;-144.99;96.47;52562.25;5003891;28;19925;-74
2024/01/23 08:52:06;;;;;;;;;;;;;;;-144.99;96.26;52529.63;5035175;28;19914;-74
2024/01/23 08:54:34;;;;;;;;;;;;;;;-144.99;95.52;52521.47;5016482;28;19933;-75
2024/01/23 08:57:01;;;;;;;;;;;;;;;-144.99;95.70;52550.00;5009786;28;19925;-74
2024/01/23 08:59:29;;;;;;;;;;;;;;;-144.99;95.23;52497.00;5012205;28;19956;-75
2024/01/23 09:01:55;;;;;;;;;;;;;;;-144.99;95.53;52574.47;5004593;28;20028;-73
2024/01/23 09:04:22;;;;;;;;;;;;;;;-144.99;94.37;52505.16;5011160;28;19968;-74
2024/01/23 09:06:49;;;;;;;;;;;;;;;-144.99;94.59;52556.13;4999824;28;19930;-73
2024/01/23 09:09:15;;;;;;;;;;;;;;;-144.99;94.72;52550.00;5011074;28;19929;-73
2024/01/23 09:11:42;;;;;;;;;;;;;;;-144.99;94.37;52574.47;5011583;28;19925;-74
2024/01/23 09:14:08;;;;;;;;;;;;;;;-144.99;94.50;52550.00;5006450;28;19991;-74
2024/01/23 09:16:36;;;;;;;;;;;;;;;-144.99;94.87;52525.56;5009248;28;19999;-74
2024/01/23 09:19:02;;;;;;;;;;;;;;;-144.99;95.83;52550.00;5005261;28;19966;-74
2024/01/23 09:21:29;;;;;;;;;;;;;;;-144.99;95.05;52570.38;5005473;28;20416;-74
2024/01/23 09:23:55;;;;;;;;;;;;;;;-144.99;93.83;52566.31;5008897;28;19929;-74
2024/01/23 09:26:23;;;;;;;;;;;;;;;-144.99;93.77;52550.00;5004450;28;20027;-75
2024/01/23 09:28:50;;;;;;;;;;;;;;;-144.99;94.15;52545.94;5010289;28;20001;-74
2024/01/23 09:31:16;;;;;;;;;;;;;;;-144.99;94.24;52578.53;5007206;28;19976;-75
2024/01/23 09:33:44;;;;;;;;;;;;;;;-144.99;94.16;52505.16;5011721;28;20397;-75
2024/01/23 09:36:10;;;;;;;;;;;;;;;-144.99;94.37;52521.47;5035632;28;19925;-74
2024/01/23 09:38:37;;;;;;;;;;;;;;;-144.99;94.10;52523.50;5028699;28;19940;-74
2024/01/23 09:41:06;;;;;;;;;;;;;;;-144.99;93.57;52525.56;5009309;28;20337;-75
2024/01/23 09:43:34;;;;;;;;;;;;;;;-144.99;93.25;52503.13;5012493;28;19999;-74
2024/01/23 09:46:02;;;;;;;;;;;;;;;-144.99;92.45;52541.84;5008555;28;20013;-75
2024/01/23 09:48:29;;;;;;;;;;;;;;;-144.99;91.63;52541.84;5000068;28;20276;-74
2024/01/23 09:50:58;;;;;;;;;;;;;;;-144.99;91.74;52515.34;5001398;28;20065;-75
2024/01/23 09:53:26;;;;;;;;;;;;;;;-144.99;90.35;52554.09;4998889;28;20033;-75
2024/01/23 09:55:53;;;;;;;;;;;;;;;-144.99;90.46;52543.91;4996699;28;20443;-73
2024/01/23 09:58:20;;;;;;;;;;;;;;;-144.99;92.23;52515.34;5009738;28;20291;-74
2024/01/23 10:00:47;;;;;;;;;;;;;;;-144.99;92.71;52497.00;5007005;28;20371;-74
2024/01/23 10:03:14;;;;;;;;;;;;;;;-144.99;91.29;52505.16;5009895;28;19957;-74
2024/01/23 10:05:41;;;;;;;;;;;;;;;-144.99;90.87;52521.47;5004132;28;21037;-74
2024/01/23 10:08:09;;;;;;;;;;;;;;;-144.99;90.82;52529.63;5004437;28;19947;-74
2024/01/23 10:10:36;;;;;;;;;;;;;;;-144.99;91.10;52517.41;5006090;28;19977;-73
2024/01/23 10:13:03;;;;;;;;;;;;;;;-144.99;89.93;52545.94;5005219;28;19965;-74
2024/01/23 10:15:31;;;;;;;;;;;;;;;-144.99;89.62;52505.16;5008982;28;20019;-74
2024/01/23 10:17:57;;;;;;;;;;;;;;;-144.99;89.74;52513.31;5005097;28;19944;-74
2024/01/23 10:20:24;;;;;;;;;;;;;;;-144.99;86.93;52490.91;5010921;28;20096;-73
2024/01/23 10:22:50;;;;;;;;;;;;;;;-144.99;86.38;52529.63;5000541;28;20029;-73
2024/01/23 10:25:20;;;;;;;;;;;;;;;-144.99;88.26;52541.84;5009064;28;19926;-73
2024/01/23 10:27:51;;;;;;;;;;;;;;;-144.99;87.46;52562.25;5001113;28;20020;-74
2024/01/23 10:30:17;;;;;;;;;;;;;;;-144.99;89.93;52537.78;5008901;28;19973;-75
2024/01/23 10:32:44;;;;;;;;;;;;;;;-144.99;90.00;52545.94;4998829;28;19965;-75
2024/01/23 10:35:12;;;;;;;;;;;;;;;-144.99;89.78;52552.03;5005194;28;20012;-75
2024/01/23 10:37:40;;;;;;;;;;;;;;;-144.99;90.52;52570.38;5005928;28;19929;-74
2024/01/23 10:40:08;;;;;;;;;;;;;;;-144.99;90.75;52521.47;5001998;28;19934;-74
2024/01/23 10:42:37;;;;;;;;;;;;;;;-144.99;91.59;52537.78;4998089;28;19930;-74
2024/01/23 10:45:05;;;;;;;;;;;;;;;-144.99;91.44;52525.56;5000264;28;20005;-73
2024/01/23 10:47:32;;;;;;;;;;;;;;;-144.99;91.66;52517.41;5004808;28;20034;-74
2024/01/23 10:49:58;;;;;;;;;;;;;;;-144.99;92.05;52484.78;5009147;28;19961;-75
2024/01/23 10:52:29;;;;;;;;;;;;;;;-144.99;91.79;52525.56;5006642;28;19929;-74
2024/01/23 10:54:57;;;;;;;;;;;;;;;-144.99;90.24;52545.94;4998521;28;20237;-74
2024/01/23 10:57:24;;;;;;;;;;;;;;;-144.99;91.09;52533.69;5004375;28;20024;-74
2024/01/23 10:59:52;;;;;;;;;;;;;;;-144.99;91.69;52562.25;5007112;28;19929;-74
2024/01/23 11:02:24;;;;;;;;;;;;;;;-144.99;90.44;52531.66;5004932;28;19953;-75
2024/01/23 11:04:52;;;;;;;;;;;;;;;-144.99;90.17;52533.69;5019273;28;19993;-74
2024/01/23 11:07:21;;;;;;;;;;;;;;;-144.99;90.43;52566.31;5030665;28;19979;-74
2024/01/23 11:09:52;;;;;;;;;;;;;;;-144.99;90.86;52527.59;5002268;28;19926;-75
2024/01/23 11:12:21;;;;;;;;;;;;;;;-144.99;92.07;52529.63;4992301;28;19965;-74
2024/01/23 11:14:50;;;;;;;;;;;;;;;-144.99;91.82;52558.16;5003252;28;19953;-74
2024/01/23 11:17:18;;;;;;;;;;;;;;;-144.99;91.67;52525.56;5005026;28;20036;-74
2024/01/23 11:19:46;;;;;;;;;;;;;;;-144.99;92.78;52600.97;5003469;28;19930;-74
2024/01/23 11:22:13;;;;;;;;;;;;;;;-144.99;92.79;52574.47;5005766;28;19964;-74
2024/01/23 11:24:40;;;;;;;;;;;;;;;-144.99;93.01;52539.81;5001585;28;20102;-74
2024/01/23 11:27:07;;;;;;;;;;;;;;;-144.99;92.42;52533.69;5007942;28;19990;-74
2024/01/23 11:29:34;;;;;;;;;;;;;;;-144.99;92.91;52501.09;4999949;28;19929;-74
2024/01/23 11:32:02;;;;;;;;;;;;;;;-144.99;92.00;52541.84;5001080;28;19929;-73
2024/01/23 11:34:40;;;;;;;;;;;;;;;-144.99;91.98;52523.50;5009950;28;19975;-73
2024/01/23 11:37:21;;;;;;;;;;;;;;;-144.99;91.75;52515.34;5009256;28;20055;-73
2024/01/23 11:39:48;;;;;;;;;;;;;;;-144.99;90.13;52501.09;5005607;28;20036;-74
2024/01/23 11:42:15;;;;;;;;;;;;;;;-144.99;90.42;52521.47;5008975;28;19926;-75
2024/01/23 11:44:41;;;;;;;;;;;;;;;-144.99;90.41;52529.63;5003653;28;19977;-75
2024/01/23 11:47:09;;;;;;;;;;;;;;;-144.99;90.44;52566.31;5014783;28;19964;-74
2024/01/23 11:49:35;;;;;;;;;;;;;;;-144.99;90.38;52488.84;5028553;28;19956;-74
2024/01/23 11:52:04;;;;;;;;;;;;;;;-144.99;89.81;52550.00;5011943;28;19980;-73
2024/01/23 11:54:31;;;;;;;;;;;;;;;-144.99;89.33;52533.69;5005995;28;20173;-73
2024/01/23 11:56:58;;;;;;;;;;;;;;;-144.99;89.75;52550.00;5008980;28;20404;-74
2024/01/23 11:59:24;;;;;;;;;;;;;;;-144.99;90.96;52537.78;5011531;28;19940;-73
2024/01/23 12:01:52;;;;;;;;;;;;;;;-144.99;91.23;52590.78;5006177;28;20017;-73
2024/01/23 12:04:18;;;;;;;;;;;;;;;-144.99;91.49;52533.69;5002365;28;20360;-74
2024/01/23 12:06:45;;;;;;;;;;;;;;;-144.99;91.93;52562.25;5005255;28;20068;-73
2024/01/23 12:09:13;;;;;;;;;;;;;;;-144.99;92.00;52574.47;5008556;28;20020;-73
2024/01/23 12:11:39;;;;;;;;;;;;;;;-144.99;92.05;52554.09;5006635;28;19984;-73
2024/01/23 12:14:06;;;;;;;;;;;;;;;-144.99;91.07;52566.31;5008470;28;19972;-73
2024/01/23 12:16:32;;;;;;;;;;;;;;;-144.99;90.65;52468.47;4998041;28;20404;-73
2024/01/23 12:18:59;;;;;;;;;;;;;;;-144.99;90.68;52576.50;5004321;28;20106;-73
2024/01/23 12:21:26;;;;;;;;;;;;;;;-144.99;90.63;52550.00;5013856;28;20012;-73
2024/01/23 12:23:55;;;;;;;;;;;;;;;-144.99;90.16;52603.00;5007962;28;19992;-74